sensor_id;sensor_type;location;lat;lon;timestamp;P1;durP1;ratioP1;P2;durP2;ratioP2
43706;SDS011;61348;53.392;-6.248;2024-03-02T00:00:21;9.65;;;3.53;;
43706;SDS011;61348;53.392;-6.248;2024-03-02T00:02:49;11.68;;;3.55;;
43706;SDS011;61348;53.392;-6.248;2024-03-02T00:05:18;6.93;;;2.65;;
43706;SDS011;61348;53.392;-6.248;2024-03-02T00:07:56;8.60;;;2.25;;
43706;SDS011;61348;53.392;-6.248;2024-03-02T00:10:25;8.70;;;2.60;;
43706;SDS011;61348;53.392;-6.248;2024-03-02T00:12:58;8.52;;;2.67;;
43706;SDS011;61348;53.392;-6.248;2024-03-02T00:18:12;6.32;;;1.88;;
43706;SDS011;61348;53.392;-6.248;2024-03-02T00:20:41;4.95;;;2.22;;
43706;SDS011;61348;53.392;-6.248;2024-03-02T00:23:09;10.45;;;3.10;;
43706;SDS011;61348;53.392;-6.248;2024-03-02T00:25:41;9.10;;;2.17;;
43706;SDS011;61348;53.392;-6.248;2024-03-02T00:28:14;4.63;;;2.00;;
43706;SDS011;61348;53.392;-6.248;2024-03-02T00:30:55;4.20;;;1.48;;
43706;SDS011;61348;53.392;-6.248;2024-03-02T00:33:28;5.38;;;1.65;;
43706;SDS011;61348;53.392;-6.248;2024-03-02T00:35:59;4.75;;;1.23;;
43706;SDS011;61348;53.392;-6.248;2024-03-02T00:38:27;4.65;;;2.60;;
43706;SDS011;61348;53.392;-6.248;2024-03-02T00:40:58;7.10;;;2.03;;
43706;SDS011;61348;53.392;-6.248;2024-03-02T00:46:05;3.15;;;1.38;;
43706;SDS011;61348;53.392;-6.248;2024-03-02T00:48:33;6.28;;;2.15;;
43706;SDS011;61348;53.392;-6.248;2024-03-02T00:51:03;6.53;;;1.85;;
43706;SDS011;61348;53.392;-6.248;2024-03-02T00:53:31;2.38;;;1.30;;
43706;SDS011;61348;53.392;-6.248;2024-03-02T00:56:02;5.00;;;1.38;;
43706;SDS011;61348;53.392;-6.248;2024-03-02T00:58:29;4.55;;;1.58;;
43706;SDS011;61348;53.392;-6.248;2024-03-02T01:00:57;5.55;;;1.58;;
43706;SDS011;61348;53.392;-6.248;2024-03-02T01:03:24;5.47;;;1.70;;
43706;SDS011;61348;53.392;-6.248;2024-03-02T01:05:52;8.07;;;2.40;;
43706;SDS011;61348;53.392;-6.248;2024-03-02T01:08:19;5.75;;;1.80;;
43706;SDS011;61348;53.392;-6.248;2024-03-02T01:10:47;9.32;;;1.95;;
43706;SDS011;61348;53.392;-6.248;2024-03-02T01:13:14;3.45;;;1.33;;
43706;SDS011;61348;53.392;-6.248;2024-03-02T01:15:41;7.80;;;2.83;;
43706;SDS011;61348;53.392;-6.248;2024-03-02T01:18:09;10.35;;;1.95;;
43706;SDS011;61348;53.392;-6.248;2024-03-02T01:20:36;5.68;;;1.60;;
43706;SDS011;61348;53.392;-6.248;2024-03-02T01:23:03;7.00;;;1.80;;
43706;SDS011;61348;53.392;-6.248;2024-03-02T01:25:31;4.75;;;1.67;;
43706;SDS011;61348;53.392;-6.248;2024-03-02T01:27:58;5.03;;;1.35;;
43706;SDS011;61348;53.392;-6.248;2024-03-02T01:30:25;4.47;;;1.65;;
43706;SDS011;61348;53.392;-6.248;2024-03-02T01:32:53;10.88;;;2.78;;
43706;SDS011;61348;53.392;-6.248;2024-03-02T01:35:20;5.45;;;1.90;;
43706;SDS011;61348;53.392;-6.248;2024-03-02T01:37:48;7.55;;;1.45;;
43706;SDS011;61348;53.392;-6.248;2024-03-02T01:40:15;4.90;;;1.80;;
43706;SDS011;61348;53.392;-6.248;2024-03-02T01:42:43;6.13;;;1.50;;
43706;SDS011;61348;53.392;-6.248;2024-03-02T01:45:11;4.97;;;1.42;;
43706;SDS011;61348;53.392;-6.248;2024-03-02T01:47:38;6.22;;;2.05;;
43706;SDS011;61348;53.392;-6.248;2024-03-02T01:50:06;8.40;;;1.77;;
43706;SDS011;61348;53.392;-6.248;2024-03-02T01:52:34;3.40;;;1.48;;
43706;SDS011;61348;53.392;-6.248;2024-03-02T01:55:01;5.88;;;1.60;;
43706;SDS011;61348;53.392;-6.248;2024-03-02T01:57:29;7.50;;;2.22;;
43706;SDS011;61348;53.392;-6.248;2024-03-02T01:59:57;7.20;;;2.63;;
43706;SDS011;61348;53.392;-6.248;2024-03-02T02:02:25;7.47;;;2.30;;
43706;SDS011;61348;53.392;-6.248;2024-03-02T02:04:52;6.13;;;1.80;;
43706;SDS011;61348;53.392;-6.248;2024-03-02T02:07:20;8.45;;;2.85;;
43706;SDS011;61348;53.392;-6.248;2024-03-02T02:09:47;11.00;;;4.03;;
43706;SDS011;61348;53.392;-6.248;2024-03-02T02:12:14;5.60;;;1.48;;
43706;SDS011;61348;53.392;-6.248;2024-03-02T02:14:49;4.53;;;1.55;;
43706;SDS011;61348;53.392;-6.248;2024-03-02T02:17:17;4.47;;;1.25;;
43706;SDS011;61348;53.392;-6.248;2024-03-02T02:19:44;11.70;;;2.03;;
43706;SDS011;61348;53.392;-6.248;2024-03-02T02:22:11;10.27;;;2.53;;
43706;SDS011;61348;53.392;-6.248;2024-03-02T02:24:39;4.72;;;1.73;;
43706;SDS011;61348;53.392;-6.248;2024-03-02T02:27:09;8.90;;;1.73;;
43706;SDS011;61348;53.392;-6.248;2024-03-02T02:29:37;10.45;;;2.67;;
43706;SDS011;61348;53.392;-6.248;2024-03-02T02:32:04;5.13;;;1.63;;
43706;SDS011;61348;53.392;-6.248;2024-03-02T02:34:33;10.30;;;2.20;;
43706;SDS011;61348;53.392;-6.248;2024-03-02T02:37:00;4.78;;;1.92;;
43706;SDS011;61348;53.392;-6.248;2024-03-02T02:39:28;7.00;;;1.80;;
43706;SDS011;61348;53.392;-6.248;2024-03-02T02:41:56;7.43;;;1.58;;
43706;SDS011;61348;53.392;-6.248;2024-03-02T02:44:23;7.45;;;1.73;;
43706;SDS011;61348;53.392;-6.248;2024-03-02T02:46:52;6.32;;;1.77;;
43706;SDS011;61348;53.392;-6.248;2024-03-02T02:49:19;5.03;;;1.65;;
43706;SDS011;61348;53.392;-6.248;2024-03-02T02:51:46;5.90;;;2.15;;
43706;SDS011;61348;53.392;-6.248;2024-03-02T02:54:14;9.10;;;1.63;;
43706;SDS011;61348;53.392;-6.248;2024-03-02T02:56:41;7.05;;;1.98;;
43706;SDS011;61348;53.392;-6.248;2024-03-02T02:59:08;11.07;;;2.45;;
43706;SDS011;61348;53.392;-6.248;2024-03-02T03:01:36;13.80;;;2.20;;
43706;SDS011;61348;53.392;-6.248;2024-03-02T03:04:03;14.45;;;2.28;;
43706;SDS011;61348;53.392;-6.248;2024-03-02T03:06:30;8.10;;;1.60;;
43706;SDS011;61348;53.392;-6.248;2024-03-02T03:08:58;8.30;;;1.75;;
43706;SDS011;61348;53.392;-6.248;2024-03-02T03:11:25;8.70;;;2.97;;
43706;SDS011;61348;53.392;-6.248;2024-03-02T03:13:53;8.20;;;2.13;;
43706;SDS011;61348;53.392;-6.248;2024-03-02T03:16:21;5.80;;;1.60;;
43706;SDS011;61348;53.392;-6.248;2024-03-02T03:18:48;5.85;;;1.90;;
43706;SDS011;61348;53.392;-6.248;2024-03-02T03:21:18;10.43;;;1.75;;
43706;SDS011;61348;53.392;-6.248;2024-03-02T03:23:46;8.82;;;1.67;;
43706;SDS011;61348;53.392;-6.248;2024-03-02T03:26:13;8.77;;;1.75;;
43706;SDS011;61348;53.392;-6.248;2024-03-02T03:28:42;14.02;;;2.13;;
43706;SDS011;61348;53.392;-6.248;2024-03-02T03:31:10;4.43;;;1.70;;
43706;SDS011;61348;53.392;-6.248;2024-03-02T03:33:38;10.65;;;1.88;;
43706;SDS011;61348;53.392;-6.248;2024-03-02T03:36:05;9.02;;;1.83;;
43706;SDS011;61348;53.392;-6.248;2024-03-02T03:38:32;10.40;;;2.40;;
43706;SDS011;61348;53.392;-6.248;2024-03-02T03:41:00;7.53;;;1.60;;
43706;SDS011;61348;53.392;-6.248;2024-03-02T03:43:27;4.47;;;1.80;;
43706;SDS011;61348;53.392;-6.248;2024-03-02T03:45:54;12.30;;;3.03;;
43706;SDS011;61348;53.392;-6.248;2024-03-02T03:48:22;6.93;;;1.95;;
43706;SDS011;61348;53.392;-6.248;2024-03-02T03:50:49;7.63;;;1.25;;
43706;SDS011;61348;53.392;-6.248;2024-03-02T03:53:17;9.45;;;1.75;;
43706;SDS011;61348;53.392;-6.248;2024-03-02T03:55:44;14.48;;;2.83;;
43706;SDS011;61348;53.392;-6.248;2024-03-02T03:58:13;8.75;;;1.50;;
43706;SDS011;61348;53.392;-6.248;2024-03-02T04:00:41;6.03;;;1.65;;
43706;SDS011;61348;53.392;-6.248;2024-03-02T04:03:08;7.55;;;2.08;;
43706;SDS011;61348;53.392;-6.248;2024-03-02T04:05:36;10.10;;;2.10;;
43706;SDS011;61348;53.392;-6.248;2024-03-02T04:08:03;5.30;;;1.50;;
43706;SDS011;61348;53.392;-6.248;2024-03-02T04:10:31;12.75;;;2.05;;
43706;SDS011;61348;53.392;-6.248;2024-03-02T04:12:58;7.13;;;1.50;;
43706;SDS011;61348;53.392;-6.248;2024-03-02T04:15:25;11.52;;;1.88;;
43706;SDS011;61348;53.392;-6.248;2024-03-02T04:17:53;7.65;;;1.95;;
43706;SDS011;61348;53.392;-6.248;2024-03-02T04:20:20;7.43;;;1.90;;
43706;SDS011;61348;53.392;-6.248;2024-03-02T04:22:47;16.80;;;3.97;;
43706;SDS011;61348;53.392;-6.248;2024-03-02T04:25:15;11.27;;;2.30;;
43706;SDS011;61348;53.392;-6.248;2024-03-02T04:27:42;8.10;;;1.30;;
43706;SDS011;61348;53.392;-6.248;2024-03-02T04:30:09;9.38;;;2.58;;
43706;SDS011;61348;53.392;-6.248;2024-03-02T04:32:37;10.18;;;3.00;;
43706;SDS011;61348;53.392;-6.248;2024-03-02T04:35:06;26.10;;;3.28;;
43706;SDS011;61348;53.392;-6.248;2024-03-02T04:37:37;5.88;;;2.30;;
43706;SDS011;61348;53.392;-6.248;2024-03-02T04:40:05;8.80;;;2.83;;
43706;SDS011;61348;53.392;-6.248;2024-03-02T04:42:35;6.07;;;1.23;;
43706;SDS011;61348;53.392;-6.248;2024-03-02T04:45:03;8.85;;;3.08;;
43706;SDS011;61348;53.392;-6.248;2024-03-02T04:47:30;14.98;;;1.55;;
43706;SDS011;61348;53.392;-6.248;2024-03-02T04:49:58;10.23;;;2.15;;
43706;SDS011;61348;53.392;-6.248;2024-03-02T04:52:25;4.32;;;2.25;;
43706;SDS011;61348;53.392;-6.248;2024-03-02T04:54:52;5.78;;;1.25;;
43706;SDS011;61348;53.392;-6.248;2024-03-02T04:57:38;5.45;;;2.05;;
43706;SDS011;61348;53.392;-6.248;2024-03-02T05:00:06;10.70;;;2.03;;
43706;SDS011;61348;53.392;-6.248;2024-03-02T05:02:35;8.40;;;2.17;;
43706;SDS011;61348;53.392;-6.248;2024-03-02T05:05:03;10.27;;;2.10;;
43706;SDS011;61348;53.392;-6.248;2024-03-02T05:07:30;12.63;;;2.28;;
43706;SDS011;61348;53.392;-6.248;2024-03-02T05:09:58;8.95;;;1.95;;
43706;SDS011;61348;53.392;-6.248;2024-03-02T05:12:26;7.20;;;1.50;;
43706;SDS011;61348;53.392;-6.248;2024-03-02T05:15:12;6.07;;;1.50;;
43706;SDS011;61348;53.392;-6.248;2024-03-02T05:17:41;9.80;;;2.20;;
43706;SDS011;61348;53.392;-6.248;2024-03-02T05:20:12;14.20;;;2.13;;
43706;SDS011;61348;53.392;-6.248;2024-03-02T05:22:40;8.38;;;1.92;;
43706;SDS011;61348;53.392;-6.248;2024-03-02T05:25:07;11.00;;;2.50;;
43706;SDS011;61348;53.392;-6.248;2024-03-02T05:27:36;11.95;;;1.88;;
43706;SDS011;61348;53.392;-6.248;2024-03-02T05:30:04;11.13;;;1.58;;
43706;SDS011;61348;53.392;-6.248;2024-03-02T05:32:33;10.73;;;3.15;;
43706;SDS011;61348;53.392;-6.248;2024-03-02T05:35:01;7.47;;;1.83;;
43706;SDS011;61348;53.392;-6.248;2024-03-02T05:37:30;8.45;;;1.92;;
43706;SDS011;61348;53.392;-6.248;2024-03-02T05:39:57;12.02;;;1.73;;
43706;SDS011;61348;53.392;-6.248;2024-03-02T05:42:26;13.00;;;2.08;;
43706;SDS011;61348;53.392;-6.248;2024-03-02T05:44:54;9.60;;;2.10;;
43706;SDS011;61348;53.392;-6.248;2024-03-02T05:47:22;7.60;;;1.80;;
43706;SDS011;61348;53.392;-6.248;2024-03-02T05:49:49;12.70;;;1.80;;
43706;SDS011;61348;53.392;-6.248;2024-03-02T05:52:16;7.07;;;1.40;;
43706;SDS011;61348;53.392;-6.248;2024-03-02T05:54:44;17.63;;;3.70;;
43706;SDS011;61348;53.392;-6.248;2024-03-02T05:57:11;9.18;;;2.03;;
43706;SDS011;61348;53.392;-6.248;2024-03-02T06:00:01;10.65;;;1.98;;
43706;SDS011;61348;53.392;-6.248;2024-03-02T06:02:28;6.30;;;1.80;;
43706;SDS011;61348;53.392;-6.248;2024-03-02T06:04:55;9.35;;;1.90;;
43706;SDS011;61348;53.392;-6.248;2024-03-02T06:07:23;8.27;;;1.75;;
43706;SDS011;61348;53.392;-6.248;2024-03-02T06:09:50;11.48;;;3.38;;
43706;SDS011;61348;53.392;-6.248;2024-03-02T06:12:19;9.07;;;2.00;;
43706;SDS011;61348;53.392;-6.248;2024-03-02T06:14:46;11.73;;;2.80;;
43706;SDS011;61348;53.392;-6.248;2024-03-02T06:17:15;12.02;;;3.83;;
43706;SDS011;61348;53.392;-6.248;2024-03-02T06:19:42;17.48;;;1.95;;
43706;SDS011;61348;53.392;-6.248;2024-03-02T06:22:09;5.95;;;1.73;;
43706;SDS011;61348;53.392;-6.248;2024-03-02T06:24:37;13.52;;;2.47;;
43706;SDS011;61348;53.392;-6.248;2024-03-02T06:27:06;5.85;;;1.70;;
43706;SDS011;61348;53.392;-6.248;2024-03-02T06:29:33;7.30;;;1.70;;
43706;SDS011;61348;53.392;-6.248;2024-03-02T06:32:01;8.35;;;1.73;;
43706;SDS011;61348;53.392;-6.248;2024-03-02T06:34:28;7.03;;;1.17;;
43706;SDS011;61348;53.392;-6.248;2024-03-02T06:36:55;10.25;;;1.95;;
43706;SDS011;61348;53.392;-6.248;2024-03-02T06:39:23;11.90;;;1.90;;
43706;SDS011;61348;53.392;-6.248;2024-03-02T06:41:50;5.90;;;2.10;;
43706;SDS011;61348;53.392;-6.248;2024-03-02T06:44:17;4.78;;;1.42;;
43706;SDS011;61348;53.392;-6.248;2024-03-02T06:46:45;7.72;;;1.50;;
43706;SDS011;61348;53.392;-6.248;2024-03-02T06:49:12;6.03;;;1.58;;
43706;SDS011;61348;53.392;-6.248;2024-03-02T06:51:39;8.30;;;1.55;;
43706;SDS011;61348;53.392;-6.248;2024-03-02T06:54:09;6.65;;;1.35;;
43706;SDS011;61348;53.392;-6.248;2024-03-02T06:56:36;4.35;;;1.83;;
43706;SDS011;61348;53.392;-6.248;2024-03-02T06:59:05;4.32;;;1.10;;
43706;SDS011;61348;53.392;-6.248;2024-03-02T07:01:33;13.90;;;1.58;;
43706;SDS011;61348;53.392;-6.248;2024-03-02T07:04:00;12.88;;;1.73;;
43706;SDS011;61348;53.392;-6.248;2024-03-02T07:06:27;5.72;;;1.70;;
43706;SDS011;61348;53.392;-6.248;2024-03-02T07:08:55;5.32;;;1.45;;
43706;SDS011;61348;53.392;-6.248;2024-03-02T07:11:22;6.75;;;1.60;;
43706;SDS011;61348;53.392;-6.248;2024-03-02T07:13:49;10.65;;;1.30;;
43706;SDS011;61348;53.392;-6.248;2024-03-02T07:16:17;6.13;;;1.60;;
43706;SDS011;61348;53.392;-6.248;2024-03-02T07:19:00;5.63;;;1.38;;
43706;SDS011;61348;53.392;-6.248;2024-03-02T07:21:29;7.25;;;1.35;;
43706;SDS011;61348;53.392;-6.248;2024-03-02T07:23:58;5.93;;;1.73;;
43706;SDS011;61348;53.392;-6.248;2024-03-02T07:26:26;8.32;;;2.00;;
43706;SDS011;61348;53.392;-6.248;2024-03-02T07:28:56;8.07;;;2.30;;
43706;SDS011;61348;53.392;-6.248;2024-03-02T07:31:24;7.18;;;1.60;;
43706;SDS011;61348;53.392;-6.248;2024-03-02T07:33:51;4.32;;;1.55;;
43706;SDS011;61348;53.392;-6.248;2024-03-02T07:36:19;7.88;;;1.83;;
43706;SDS011;61348;53.392;-6.248;2024-03-02T07:38:47;6.47;;;3.15;;
43706;SDS011;61348;53.392;-6.248;2024-03-02T07:41:17;7.90;;;2.17;;
43706;SDS011;61348;53.392;-6.248;2024-03-02T07:43:44;9.88;;;1.20;;
43706;SDS011;61348;53.392;-6.248;2024-03-02T07:46:13;7.50;;;2.83;;
43706;SDS011;61348;53.392;-6.248;2024-03-02T07:48:40;2.88;;;1.60;;
43706;SDS011;61348;53.392;-6.248;2024-03-02T07:51:10;7.63;;;1.70;;
43706;SDS011;61348;53.392;-6.248;2024-03-02T07:53:37;4.80;;;1.40;;
43706;SDS011;61348;53.392;-6.248;2024-03-02T07:56:04;11.40;;;2.50;;
43706;SDS011;61348;53.392;-6.248;2024-03-02T07:58:33;6.80;;;1.60;;
43706;SDS011;61348;53.392;-6.248;2024-03-02T08:01:02;4.93;;;1.25;;
43706;SDS011;61348;53.392;-6.248;2024-03-02T08:03:30;5.38;;;1.50;;
43706;SDS011;61348;53.392;-6.248;2024-03-02T08:05:59;6.57;;;1.50;;
43706;SDS011;61348;53.392;-6.248;2024-03-02T08:08:27;3.10;;;1.48;;
43706;SDS011;61348;53.392;-6.248;2024-03-02T08:10:55;4.85;;;1.23;;
43706;SDS011;61348;53.392;-6.248;2024-03-02T08:13:24;7.32;;;1.35;;
43706;SDS011;61348;53.392;-6.248;2024-03-02T08:15:51;3.72;;;1.33;;
43706;SDS011;61348;53.392;-6.248;2024-03-02T08:18:19;4.45;;;1.27;;
43706;SDS011;61348;53.392;-6.248;2024-03-02T08:20:46;6.70;;;2.08;;
43706;SDS011;61348;53.392;-6.248;2024-03-02T08:23:14;6.68;;;1.70;;
43706;SDS011;61348;53.392;-6.248;2024-03-02T08:25:41;5.22;;;1.08;;
43706;SDS011;61348;53.392;-6.248;2024-03-02T08:28:10;1.85;;;0.55;;
43706;SDS011;61348;53.392;-6.248;2024-03-02T08:30:38;8.52;;;1.15;;
43706;SDS011;61348;53.392;-6.248;2024-03-02T08:33:05;1.15;;;0.50;;
43706;SDS011;61348;53.392;-6.248;2024-03-02T08:35:32;4.07;;;0.90;;
43706;SDS011;61348;53.392;-6.248;2024-03-02T08:38:03;2.15;;;0.80;;
43706;SDS011;61348;53.392;-6.248;2024-03-02T08:40:31;2.63;;;0.80;;
43706;SDS011;61348;53.392;-6.248;2024-03-02T08:42:58;3.22;;;1.02;;
43706;SDS011;61348;53.392;-6.248;2024-03-02T08:45:26;4.35;;;1.30;;
43706;SDS011;61348;53.392;-6.248;2024-03-02T08:47:54;1.85;;;1.05;;
43706;SDS011;61348;53.392;-6.248;2024-03-02T08:50:21;8.65;;;0.90;;
43706;SDS011;61348;53.392;-6.248;2024-03-02T08:52:48;3.47;;;0.65;;
43706;SDS011;61348;53.392;-6.248;2024-03-02T08:55:16;3.28;;;0.98;;
43706;SDS011;61348;53.392;-6.248;2024-03-02T08:57:45;2.13;;;0.93;;
43706;SDS011;61348;53.392;-6.248;2024-03-02T09:00:12;2.80;;;0.77;;
43706;SDS011;61348;53.392;-6.248;2024-03-02T09:02:40;2.67;;;1.00;;
43706;SDS011;61348;53.392;-6.248;2024-03-02T09:05:07;3.88;;;2.25;;
43706;SDS011;61348;53.392;-6.248;2024-03-02T09:07:35;5.15;;;0.77;;
43706;SDS011;61348;53.392;-6.248;2024-03-02T09:10:03;5.03;;;0.98;;
43706;SDS011;61348;53.392;-6.248;2024-03-02T09:12:31;4.72;;;0.88;;
43706;SDS011;61348;53.392;-6.248;2024-03-02T09:15:01;3.03;;;0.98;;
43706;SDS011;61348;53.392;-6.248;2024-03-02T09:17:33;3.80;;;0.93;;
43706;SDS011;61348;53.392;-6.248;2024-03-02T09:20:04;3.97;;;0.60;;
43706;SDS011;61348;53.392;-6.248;2024-03-02T09:22:32;5.65;;;1.00;;
43706;SDS011;61348;53.392;-6.248;2024-03-02T09:24:59;5.82;;;1.00;;
43706;SDS011;61348;53.392;-6.248;2024-03-02T09:27:29;4.07;;;0.93;;
43706;SDS011;61348;53.392;-6.248;2024-03-02T09:29:57;8.93;;;1.35;;
43706;SDS011;61348;53.392;-6.248;2024-03-02T09:32:24;5.93;;;0.68;;
43706;SDS011;61348;53.392;-6.248;2024-03-02T09:34:52;3.10;;;0.93;;
43706;SDS011;61348;53.392;-6.248;2024-03-02T09:37:20;4.28;;;0.88;;
43706;SDS011;61348;53.392;-6.248;2024-03-02T09:39:47;11.52;;;1.25;;
43706;SDS011;61348;53.392;-6.248;2024-03-02T09:42:15;6.97;;;1.50;;
43706;SDS011;61348;53.392;-6.248;2024-03-02T09:44:42;4.05;;;0.77;;
43706;SDS011;61348;53.392;-6.248;2024-03-02T09:47:10;2.63;;;0.65;;
43706;SDS011;61348;53.392;-6.248;2024-03-02T09:49:37;5.38;;;0.73;;
43706;SDS011;61348;53.392;-6.248;2024-03-02T09:52:06;7.18;;;3.20;;
43706;SDS011;61348;53.392;-6.248;2024-03-02T09:54:34;5.20;;;1.10;;
43706;SDS011;61348;53.392;-6.248;2024-03-02T09:57:04;2.78;;;1.25;;
43706;SDS011;61348;53.392;-6.248;2024-03-02T09:59:31;7.80;;;1.13;;
43706;SDS011;61348;53.392;-6.248;2024-03-02T10:02:00;2.50;;;1.13;;
43706;SDS011;61348;53.392;-6.248;2024-03-02T10:04:30;3.05;;;2.58;;
43706;SDS011;61348;53.392;-6.248;2024-03-02T10:09:35;2.55;;;0.65;;
43706;SDS011;61348;53.392;-6.248;2024-03-02T10:12:06;5.40;;;1.00;;
43706;SDS011;61348;53.392;-6.248;2024-03-02T10:14:38;5.65;;;1.35;;
43706;SDS011;61348;53.392;-6.248;2024-03-02T10:17:07;3.42;;;1.02;;
43706;SDS011;61348;53.392;-6.248;2024-03-02T10:19:36;3.20;;;1.00;;
43706;SDS011;61348;53.392;-6.248;2024-03-02T10:22:06;1.45;;;0.55;;
43706;SDS011;61348;53.392;-6.248;2024-03-02T10:24:39;3.92;;;1.13;;
43706;SDS011;61348;53.392;-6.248;2024-03-02T10:27:18;2.15;;;0.90;;
43706;SDS011;61348;53.392;-6.248;2024-03-02T10:29:50;5.30;;;0.80;;
43706;SDS011;61348;53.392;-6.248;2024-03-02T10:32:17;8.80;;;1.77;;
43706;SDS011;61348;53.392;-6.248;2024-03-02T10:34:45;4.47;;;1.27;;
43706;SDS011;61348;53.392;-6.248;2024-03-02T10:37:14;5.55;;;1.38;;
43706;SDS011;61348;53.392;-6.248;2024-03-02T10:39:42;3.03;;;1.00;;
43706;SDS011;61348;53.392;-6.248;2024-03-02T10:42:10;2.38;;;1.00;;
43706;SDS011;61348;53.392;-6.248;2024-03-02T10:44:39;5.20;;;1.20;;
43706;SDS011;61348;53.392;-6.248;2024-03-02T10:47:07;4.63;;;0.80;;
43706;SDS011;61348;53.392;-6.248;2024-03-02T10:49:36;4.05;;;0.88;;
43706;SDS011;61348;53.392;-6.248;2024-03-02T10:52:05;5.57;;;2.25;;
43706;SDS011;61348;53.392;-6.248;2024-03-02T10:54:33;1.17;;;0.70;;
43706;SDS011;61348;53.392;-6.248;2024-03-02T10:57:04;3.33;;;0.70;;
43706;SDS011;61348;53.392;-6.248;2024-03-02T10:59:34;5.82;;;0.52;;
43706;SDS011;61348;53.392;-6.248;2024-03-02T11:02:14;2.58;;;0.80;;
43706;SDS011;61348;53.392;-6.248;2024-03-02T11:04:44;4.13;;;1.65;;
43706;SDS011;61348;53.392;-6.248;2024-03-02T11:07:15;3.47;;;0.90;;
43706;SDS011;61348;53.392;-6.248;2024-03-02T11:09:52;4.10;;;0.80;;
43706;SDS011;61348;53.392;-6.248;2024-03-02T11:15:22;2.20;;;0.93;;
43706;SDS011;61348;53.392;-6.248;2024-03-02T11:17:53;0.80;;;0.30;;
43706;SDS011;61348;53.392;-6.248;2024-03-02T11:20:21;2.85;;;0.90;;
43706;SDS011;61348;53.392;-6.248;2024-03-02T11:22:50;2.67;;;0.40;;
43706;SDS011;61348;53.392;-6.248;2024-03-02T11:25:24;0.95;;;0.30;;
43706;SDS011;61348;53.392;-6.248;2024-03-02T11:33:01;1.67;;;0.65;;
43706;SDS011;61348;53.392;-6.248;2024-03-02T11:35:40;12.05;;;0.88;;
43706;SDS011;61348;53.392;-6.248;2024-03-02T11:38:10;4.30;;;0.52;;
43706;SDS011;61348;53.392;-6.248;2024-03-02T11:40:39;1.52;;;0.32;;
43706;SDS011;61348;53.392;-6.248;2024-03-02T11:43:07;1.38;;;0.30;;
43706;SDS011;61348;53.392;-6.248;2024-03-02T11:45:36;4.03;;;0.40;;
43706;SDS011;61348;53.392;-6.248;2024-03-02T11:48:08;1.30;;;0.30;;
43706;SDS011;61348;53.392;-6.248;2024-03-02T11:50:40;2.78;;;0.80;;
43706;SDS011;61348;53.392;-6.248;2024-03-02T11:53:11;4.20;;;1.30;;
43706;SDS011;61348;53.392;-6.248;2024-03-02T11:55:39;5.07;;;1.42;;
43706;SDS011;61348;53.392;-6.248;2024-03-02T11:58:08;3.65;;;0.88;;
43706;SDS011;61348;53.392;-6.248;2024-03-02T12:00:35;2.47;;;0.80;;
43706;SDS011;61348;53.392;-6.248;2024-03-02T12:03:07;1.80;;;0.60;;
43706;SDS011;61348;53.392;-6.248;2024-03-02T12:05:35;1.33;;;0.73;;
43706;SDS011;61348;53.392;-6.248;2024-03-02T12:08:04;0.57;;;0.45;;
43706;SDS011;61348;53.392;-6.248;2024-03-02T12:10:36;1.30;;;0.32;;
43706;SDS011;61348;53.392;-6.248;2024-03-02T12:13:05;1.88;;;0.80;;
43706;SDS011;61348;53.392;-6.248;2024-03-02T12:15:35;0.95;;;0.63;;
43706;SDS011;61348;53.392;-6.248;2024-03-02T12:18:04;1.58;;;0.70;;
43706;SDS011;61348;53.392;-6.248;2024-03-02T12:20:32;2.58;;;0.90;;
43706;SDS011;61348;53.392;-6.248;2024-03-02T12:23:01;2.78;;;1.42;;
43706;SDS011;61348;53.392;-6.248;2024-03-02T12:25:30;1.88;;;1.15;;
43706;SDS011;61348;53.392;-6.248;2024-03-02T12:27:59;4.20;;;0.95;;
43706;SDS011;61348;53.392;-6.248;2024-03-02T12:30:32;2.00;;;0.88;;
43706;SDS011;61348;53.392;-6.248;2024-03-02T12:33:02;2.80;;;0.80;;
43706;SDS011;61348;53.392;-6.248;2024-03-02T12:35:30;2.55;;;0.80;;
43706;SDS011;61348;53.392;-6.248;2024-03-02T12:37:58;2.70;;;0.55;;
43706;SDS011;61348;53.392;-6.248;2024-03-02T12:40:25;1.67;;;0.98;;
43706;SDS011;61348;53.392;-6.248;2024-03-02T12:42:54;1.42;;;0.73;;
43706;SDS011;61348;53.392;-6.248;2024-03-02T12:45:21;1.98;;;1.08;;
43706;SDS011;61348;53.392;-6.248;2024-03-02T12:47:52;3.28;;;1.00;;
43706;SDS011;61348;53.392;-6.248;2024-03-02T12:50:20;2.22;;;1.20;;
43706;SDS011;61348;53.392;-6.248;2024-03-02T12:52:53;2.97;;;0.90;;
43706;SDS011;61348;53.392;-6.248;2024-03-02T12:55:22;0.98;;;0.47;;
43706;SDS011;61348;53.392;-6.248;2024-03-02T12:57:51;0.50;;;0.30;;
43706;SDS011;61348;53.392;-6.248;2024-03-02T13:00:20;0.60;;;0.60;;
43706;SDS011;61348;53.392;-6.248;2024-03-02T13:02:49;1.50;;;0.47;;
43706;SDS011;61348;53.392;-6.248;2024-03-02T13:05:19;1.23;;;0.70;;
43706;SDS011;61348;53.392;-6.248;2024-03-02T13:07:47;0.70;;;0.40;;
43706;SDS011;61348;53.392;-6.248;2024-03-02T13:10:16;1.10;;;0.57;;
43706;SDS011;61348;53.392;-6.248;2024-03-02T13:12:45;1.42;;;0.40;;
43706;SDS011;61348;53.392;-6.248;2024-03-02T13:15:13;2.65;;;0.75;;
43706;SDS011;61348;53.392;-6.248;2024-03-02T13:17:44;0.77;;;0.75;;
43706;SDS011;61348;53.392;-6.248;2024-03-02T13:20:15;3.80;;;1.33;;
43706;SDS011;61348;53.392;-6.248;2024-03-02T13:22:44;1.88;;;0.77;;
43706;SDS011;61348;53.392;-6.248;2024-03-02T13:25:11;2.28;;;0.50;;
43706;SDS011;61348;53.392;-6.248;2024-03-02T13:27:39;0.40;;;0.40;;
43706;SDS011;61348;53.392;-6.248;2024-03-02T13:30:07;2.03;;;0.50;;
43706;SDS011;61348;53.392;-6.248;2024-03-02T13:32:35;1.08;;;0.68;;
43706;SDS011;61348;53.392;-6.248;2024-03-02T13:35:03;1.23;;;0.60;;
43706;SDS011;61348;53.392;-6.248;2024-03-02T13:37:30;2.90;;;1.20;;
43706;SDS011;61348;53.392;-6.248;2024-03-02T13:39:58;2.20;;;0.57;;
43706;SDS011;61348;53.392;-6.248;2024-03-02T13:42:25;1.40;;;0.55;;
43706;SDS011;61348;53.392;-6.248;2024-03-02T13:44:54;1.00;;;0.60;;
43706;SDS011;61348;53.392;-6.248;2024-03-02T13:47:22;1.30;;;0.90;;
43706;SDS011;61348;53.392;-6.248;2024-03-02T13:49:49;6.60;;;0.65;;
43706;SDS011;61348;53.392;-6.248;2024-03-02T13:52:16;3.63;;;0.70;;
43706;SDS011;61348;53.392;-6.248;2024-03-02T13:54:45;2.58;;;0.50;;
43706;SDS011;61348;53.392;-6.248;2024-03-02T13:57:14;3.65;;;0.93;;
43706;SDS011;61348;53.392;-6.248;2024-03-02T13:59:42;1.10;;;0.50;;
43706;SDS011;61348;53.392;-6.248;2024-03-02T14:02:11;1.63;;;0.47;;
43706;SDS011;61348;53.392;-6.248;2024-03-02T14:04:39;1.40;;;0.75;;
43706;SDS011;61348;53.392;-6.248;2024-03-02T14:07:06;0.90;;;0.80;;
43706;SDS011;61348;53.392;-6.248;2024-03-02T14:09:37;3.40;;;0.80;;
43706;SDS011;61348;53.392;-6.248;2024-03-02T14:12:05;3.72;;;1.40;;
43706;SDS011;61348;53.392;-6.248;2024-03-02T14:14:32;3.83;;;1.38;;
43706;SDS011;61348;53.392;-6.248;2024-03-02T14:17:00;1.90;;;0.70;;
43706;SDS011;61348;53.392;-6.248;2024-03-02T14:19:30;2.03;;;0.85;;
43706;SDS011;61348;53.392;-6.248;2024-03-02T14:21:58;0.90;;;0.50;;
43706;SDS011;61348;53.392;-6.248;2024-03-02T14:24:26;1.65;;;0.77;;
43706;SDS011;61348;53.392;-6.248;2024-03-02T14:26:56;2.15;;;0.80;;
43706;SDS011;61348;53.392;-6.248;2024-03-02T14:29:42;1.95;;;1.67;;
43706;SDS011;61348;53.392;-6.248;2024-03-02T14:32:10;3.53;;;1.17;;
43706;SDS011;61348;53.392;-6.248;2024-03-02T14:34:38;2.85;;;0.77;;
43706;SDS011;61348;53.392;-6.248;2024-03-02T14:37:06;2.45;;;0.80;;
43706;SDS011;61348;53.392;-6.248;2024-03-02T14:39:34;1.75;;;1.02;;
43706;SDS011;61348;53.392;-6.248;2024-03-02T14:42:02;2.58;;;0.98;;
43706;SDS011;61348;53.392;-6.248;2024-03-02T14:44:30;3.97;;;0.95;;
43706;SDS011;61348;53.392;-6.248;2024-03-02T14:46:57;2.33;;;0.55;;
43706;SDS011;61348;53.392;-6.248;2024-03-02T14:49:26;0.70;;;0.45;;
43706;SDS011;61348;53.392;-6.248;2024-03-02T14:51:53;1.95;;;0.68;;
43706;SDS011;61348;53.392;-6.248;2024-03-02T14:54:21;1.60;;;0.85;;
43706;SDS011;61348;53.392;-6.248;2024-03-02T14:56:48;2.40;;;0.95;;